Time;durP1;ratioP1;P1;durP2;ratioP2;P2;SDS_P1;SDS_P2;PMS_P1;PMS_P2;Temp;Humidity;BMP_temperature;BMP_pressure;BME280_temperature;BME280_humidity;BME280_pressure;Samples;Min_cycle;Max_cycle;Signal;HPM_P1;HPM_P2
2023/12/23 00:02:10;;;;;;;8.80;1.85;;;8.50;99.90;;;;;;5040021;28;20515;-90
2023/12/23 00:04:36;;;;;;;7.20;1.58;;;8.50;99.90;;;;;;5041588;28;20051;-89
2023/12/23 00:07:05;;;;;;;5.47;1.25;;;8.50;99.90;;;;;;5044113;28;20029;-89
2023/12/23 00:09:30;;;;;;;8.40;1.33;;;8.50;99.90;;;;;;5044843;28;20053;-89
2023/12/23 00:11:56;;;;;;;9.07;1.65;;;8.50;99.90;;;;;;5053274;28;20041;-90
2023/12/23 00:14:22;;;;;;;9.48;1.35;;;8.50;99.90;;;;;;5038618;28;20025;-89
2023/12/23 00:16:47;;;;;;;6.78;1.50;;;8.50;99.90;;;;;;5039391;28;20025;-89
2023/12/23 00:19:13;;;;;;;7.35;1.50;;;8.50;99.90;;;;;;5039911;28;20107;-88
2023/12/23 00:21:39;;;;;;;4.93;1.58;;;8.50;99.90;;;;;;5037690;28;20029;-90
2023/12/23 00:24:05;;;;;;;5.53;1.15;;;8.50;99.90;;;;;;5040241;28;20029;-89
2023/12/23 00:26:31;;;;;;;5.53;1.60;;;8.50;99.90;;;;;;5057006;28;20029;-89
2023/12/23 00:28:56;;;;;;;4.45;1.42;;;8.50;99.90;;;;;;5040106;28;20424;-92
2023/12/23 00:31:22;;;;;;;5.68;1.45;;;8.50;99.90;;;;;;5013575;28;20034;-89
2023/12/23 00:33:49;;;;;;;6.85;1.30;;;8.50;99.90;;;;;;5061613;28;20025;-90
2023/12/23 00:36:15;;;;;;;7.38;1.60;;;8.60;99.90;;;;;;5046017;28;20382;-91
2023/12/23 00:38:41;;;;;;;9.50;2.42;;;8.60;99.90;;;;;;5024217;28;20033;-87
2023/12/23 00:41:09;;;;;;;9.18;1.63;;;8.60;99.90;;;;;;5030811;28;20025;-88
2023/12/23 00:43:35;;;;;;;8.25;1.52;;;8.60;99.90;;;;;;5005177;28;20437;-88
2023/12/23 00:46:01;;;;;;;6.78;1.40;;;8.60;99.90;;;;;;5041154;28;20113;-89
2023/12/23 00:48:26;;;;;;;6.28;1.40;;;8.60;99.90;;;;;;5026429;28;20028;-89
2023/12/23 00:50:52;;;;;;;4.43;1.73;;;8.70;99.90;;;;;;5022762;28;20096;-88
2023/12/23 00:53:18;;;;;;;9.40;1.83;;;8.70;99.90;;;;;;5026743;28;20037;-89
2023/12/23 00:55:43;;;;;;;9.50;1.60;;;8.60;99.90;;;;;;5018860;28;20029;-89
2023/12/23 00:58:09;;;;;;;8.15;1.80;;;8.60;99.90;;;;;;5018422;28;20084;-90
2023/12/23 01:00:35;;;;;;;6.55;1.45;;;8.60;99.90;;;;;;5001639;28;20029;-90
2023/12/23 01:03:01;;;;;;;8.25;1.50;;;8.60;99.90;;;;;;5025318;28;20053;-88
2023/12/23 01:05:26;;;;;;;7.13;1.40;;;8.70;99.90;;;;;;5018911;28;20045;-89
2023/12/23 01:07:52;;;;;;;4.55;1.17;;;8.70;99.90;;;;;;5029914;28;22360;-89
2023/12/23 01:10:21;;;;;;;5.20;1.48;;;8.70;99.90;;;;;;5038269;28;20033;-89
2023/12/23 01:12:47;;;;;;;6.68;1.63;;;8.70;99.90;;;;;;5051177;28;20082;-90
2023/12/23 01:15:13;;;;;;;6.15;1.20;;;8.70;99.90;;;;;;5018583;28;20112;-89
2023/12/23 01:17:39;;;;;;;6.88;1.38;;;8.70;99.90;;;;;;5047585;28;20093;-89
2023/12/23 01:20:05;;;;;;;3.78;1.30;;;8.70;99.90;;;;;;5058460;28;20088;-90
2023/12/23 01:22:34;;;;;;;6.30;1.40;;;8.70;99.90;;;;;;5058380;28;20118;-87
2023/12/23 01:24:59;;;;;;;4.38;1.23;;;8.70;99.90;;;;;;5029083;28;20176;-90
2023/12/23 01:27:25;;;;;;;5.07;1.33;;;8.70;99.90;;;;;;5018511;28;20045;-88
2023/12/23 01:29:51;;;;;;;6.05;1.58;;;8.80;99.90;;;;;;5002590;28;20120;-89
2023/12/23 01:32:16;;;;;;;6.45;1.58;;;8.70;99.90;;;;;;5025760;28;20504;-88
2023/12/23 01:34:42;;;;;;;8.35;1.63;;;8.70;99.90;;;;;;5049255;28;20489;-88
2023/12/23 01:37:08;;;;;;;7.00;1.58;;;8.70;99.90;;;;;;5042161;28;20084;-86
2023/12/23 01:39:34;;;;;;;7.32;1.55;;;8.80;99.90;;;;;;5077693;28;20033;-87
2023/12/23 01:42:08;;;;;;;6.10;1.45;;;8.70;99.90;;;;;;5066559;28;20029;-88
2023/12/23 01:44:33;;;;;;;6.65;1.60;;;8.80;99.90;;;;;;5054801;28;20115;-89
2023/12/23 01:47:02;;;;;;;7.78;1.10;;;8.70;99.90;;;;;;5038116;28;20029;-89
2023/12/23 01:49:31;;;;;;;4.88;0.85;;;8.80;99.90;;;;;;5043997;28;20060;-89
2023/12/23 01:51:59;;;;;;;5.35;1.40;;;8.70;99.90;;;;;;5017672;28;20029;-89
2023/12/23 01:54:26;;;;;;;7.45;1.50;;;8.70;99.90;;;;;;5018668;28;20033;-88
2023/12/23 01:56:53;;;;;;;5.43;1.33;;;8.70;99.90;;;;;;5022449;28;20048;-90
2023/12/23 01:59:19;;;;;;;6.43;1.35;;;8.70;99.90;;;;;;5035334;28;20041;-89
2023/12/23 02:01:45;;;;;;;4.90;1.25;;;8.80;99.90;;;;;;5001352;28;20033;-89
2023/12/23 02:04:11;;;;;;;5.05;1.40;;;8.70;99.90;;;;;;5035224;28;20465;-89
2023/12/23 02:06:37;;;;;;;5.32;1.67;;;8.80;99.90;;;;;;5004946;28;20021;-88
2023/12/23 02:09:06;;;;;;;6.82;1.35;;;8.80;99.90;;;;;;5037129;28;20037;-89
2023/12/23 02:12:06;;;;;;;3.67;1.17;;;8.70;99.90;;;;;;5020603;28;20472;-89
2023/12/23 02:14:40;;;;;;;4.78;1.20;;;8.70;99.90;;;;;;5049927;28;20025;-88
2023/12/23 02:17:07;;;;;;;5.00;1.45;;;8.70;99.90;;;;;;5041796;28;20032;-85
2023/12/23 02:19:35;;;;;;;8.07;1.60;;;8.80;99.90;;;;;;5014897;28;20029;-88
2023/12/23 02:22:01;;;;;;;6.60;1.40;;;8.80;99.90;;;;;;5012210;28;20033;-89
2023/12/23 02:24:27;;;;;;;3.75;0.95;;;8.80;99.90;;;;;;5001113;28;20087;-89
2023/12/23 02:26:59;;;;;;;6.75;1.20;;;8.80;99.90;;;;;;5020318;28;20065;-88
2023/12/23 02:29:27;;;;;;;4.88;1.20;;;8.80;99.90;;;;;;5016856;28;20039;-89
2023/12/23 02:31:55;;;;;;;6.45;1.40;;;8.90;99.90;;;;;;5026508;28;20049;-89
2023/12/23 02:34:21;;;;;;;7.03;1.60;;;8.80;99.90;;;;;;5029002;28;20037;-87
2023/12/23 02:36:47;;;;;;;4.45;1.30;;;8.80;99.90;;;;;;4996970;28;20108;-86
2023/12/23 02:39:12;;;;;;;4.88;1.10;;;8.80;99.90;;;;;;5020317;28;20064;-88
2023/12/23 02:41:38;;;;;;;7.45;1.45;;;8.80;99.90;;;;;;5032469;28;20140;-90
2023/12/23 02:44:04;;;;;;;6.43;1.38;;;8.80;99.90;;;;;;5032713;28;20533;-88
2023/12/23 02:46:29;;;;;;;6.95;1.77;;;8.80;99.90;;;;;;5029826;28;20036;-89
2023/12/23 02:48:55;;;;;;;5.18;1.88;;;8.80;99.90;;;;;;5027846;28;20037;-89
2023/12/23 02:51:21;;;;;;;8.02;1.60;;;8.90;99.90;;;;;;5025451;28;20044;-89
2023/12/23 02:53:46;;;;;;;5.55;1.10;;;8.90;99.90;;;;;;5031537;28;20452;-88
2023/12/23 02:56:12;;;;;;;4.45;0.80;;;8.90;99.90;;;;;;5031462;28;20119;-87
2023/12/23 02:58:38;;;;;;;3.72;1.27;;;9.00;99.90;;;;;;5022389;28;20424;-89
2023/12/23 03:01:07;;;;;;;4.63;1.23;;;9.00;99.90;;;;;;5020240;28;20082;-89
2023/12/23 03:03:33;;;;;;;4.50;1.30;;;9.00;99.90;;;;;;5054778;28;20043;-89
2023/12/23 03:06:00;;;;;;;4.57;1.75;;;9.00;99.90;;;;;;5021488;28;20029;-89
2023/12/23 03:08:26;;;;;;;5.75;2.10;;;9.00;99.90;;;;;;5051290;28;20031;-88
2023/12/23 03:10:51;;;;;;;5.90;2.13;;;9.00;99.90;;;;;;5068244;28;20033;-89
2023/12/23 03:13:17;;;;;;;5.10;1.85;;;9.00;99.90;;;;;;5055341;28;20373;-89
2023/12/23 03:15:43;;;;;;;6.32;2.15;;;9.00;99.90;;;;;;5055904;28;20022;-89
2023/12/23 03:18:09;;;;;;;3.95;2.30;;;9.00;99.90;;;;;;5005032;28;20037;-89
2023/12/23 03:20:37;;;;;;;9.07;2.95;;;9.00;99.90;;;;;;5017020;28;20061;-90
2023/12/23 03:23:05;;;;;;;7.07;2.30;;;9.00;99.90;;;;;;5034018;28;20084;-89
2023/12/23 03:25:31;;;;;;;6.28;2.40;;;9.00;99.90;;;;;;5035211;28;20441;-88
2023/12/23 03:27:57;;;;;;;8.95;3.17;;;9.10;99.90;;;;;;5032044;28;20028;-89
2023/12/23 03:30:25;;;;;;;9.65;2.85;;;9.10;99.90;;;;;;5022169;28;20057;-89
2023/12/23 03:32:51;;;;;;;6.80;3.03;;;9.10;99.90;;;;;;5040543;28;20089;-89
2023/12/23 03:35:17;;;;;;;4.82;2.35;;;9.10;99.90;;;;;;5025639;28;20029;-89
2023/12/23 03:37:42;;;;;;;8.30;2.95;;;9.10;99.90;;;;;;5039277;28;20036;-90
2023/12/23 03:40:08;;;;;;;9.57;2.88;;;9.10;99.90;;;;;;5046763;28;20033;-91
2023/12/23 03:42:34;;;;;;;10.10;2.60;;;9.10;99.90;;;;;;5056731;28;20533;-91
2023/12/23 03:45:00;;;;;;;11.85;2.70;;;9.20;99.90;;;;;;5051857;28;20159;-92
2023/12/23 03:47:26;;;;;;;10.60;3.03;;;9.20;99.90;;;;;;5011052;28;20041;-91
2023/12/23 03:49:51;;;;;;;8.80;2.25;;;9.20;99.90;;;;;;5007545;28;20034;-90
2023/12/23 03:52:20;;;;;;;8.48;2.90;;;9.20;99.90;;;;;;5020418;28;20457;-90
2023/12/23 03:54:46;;;;;;;10.85;2.22;;;9.20;99.90;;;;;;5034381;28;20049;-89
2023/12/23 03:57:11;;;;;;;9.73;2.40;;;9.20;99.90;;;;;;5019935;28;20026;-90
2023/12/23 03:59:40;;;;;;;7.22;2.15;;;9.20;99.90;;;;;;5015152;28;20079;-90
2023/12/23 04:02:08;;;;;;;10.93;2.28;;;9.20;99.90;;;;;;5039891;28;20031;-90
2023/12/23 04:04:40;;;;;;;10.52;3.10;;;9.30;99.90;;;;;;5049959;28;20129;-90
2023/12/23 04:07:08;;;;;;;8.50;2.10;;;9.30;99.90;;;;;;5030102;28;20281;-90
2023/12/23 04:09:34;;;;;;;15.88;2.63;;;9.30;99.90;;;;;;5018371;28;20037;-91
2023/12/23 04:12:00;;;;;;;11.80;2.40;;;9.30;99.90;;;;;;5058094;28;20029;-89
2023/12/23 04:14:26;;;;;;;13.65;2.88;;;9.30;99.90;;;;;;5058077;28;20017;-89
2023/12/23 04:16:51;;;;;;;12.73;2.28;;;9.30;99.90;;;;;;5025822;28;20025;-89
2023/12/23 04:19:17;;;;;;;11.85;2.58;;;9.30;99.90;;;;;;5027170;28;20045;-90
2023/12/23 04:21:42;;;;;;;9.20;2.20;;;9.30;99.90;;;;;;5031389;28;20075;-90
2023/12/23 04:24:08;;;;;;;8.18;1.98;;;9.40;99.90;;;;;;5022958;28;20030;-92
2023/12/23 04:26:34;;;;;;;14.07;2.50;;;9.40;99.90;;;;;;5026725;28;20022;-90
2023/12/23 04:29:00;;;;;;;9.20;1.83;;;9.40;99.90;;;;;;5042052;28;20106;-90
2023/12/23 04:31:26;;;;;;;8.20;2.17;;;9.40;99.90;;;;;;5057390;28;20033;-91
2023/12/23 04:33:51;;;;;;;9.50;2.20;;;9.40;99.90;;;;;;5038658;28;20029;-90
2023/12/23 04:36:17;;;;;;;11.55;2.63;;;9.50;99.90;;;;;;5045325;28;20009;-90
2023/12/23 04:38:44;;;;;;;13.27;2.78;;;9.50;99.90;;;;;;5079038;28;20029;-89
2023/12/23 04:41:10;;;;;;;12.70;2.60;;;9.50;99.90;;;;;;5069796;28;20503;-91
2023/12/23 04:43:35;;;;;;;8.63;2.22;;;9.50;99.90;;;;;;5064603;28;20032;-91
2023/12/23 04:46:02;;;;;;;13.55;2.30;;;9.60;99.90;;;;;;5042706;28;20128;-93
2023/12/23 04:48:28;;;;;;;9.63;2.38;;;9.50;99.90;;;;;;5036838;28;20040;-92
2023/12/23 04:50:54;;;;;;;13.18;2.63;;;9.50;99.90;;;;;;5008948;28;20026;-91
2023/12/23 04:53:22;;;;;;;7.57;2.40;;;9.50;99.90;;;;;;5051197;28;20021;-91
2023/12/23 04:55:48;;;;;;;9.75;1.98;;;9.50;99.90;;;;;;5037709;28;20032;-90
2023/12/23 04:58:14;;;;;;;12.63;2.85;;;9.50;99.90;;;;;;5010476;28;20036;-91
2023/12/23 05:00:40;;;;;;;12.38;2.15;;;9.50;99.90;;;;;;5023002;28;20078;-90
2023/12/23 05:03:05;;;;;;;13.52;3.08;;;9.50;99.90;;;;;;5034609;28;20390;-90
2023/12/23 05:05:31;;;;;;;13.45;2.70;;;9.50;99.90;;;;;;5027742;28;20098;-90
2023/12/23 05:07:57;;;;;;;10.65;2.83;;;9.60;99.90;;;;;;5033983;28;20036;-90
2023/12/23 05:10:23;;;;;;;12.82;2.95;;;9.50;99.90;;;;;;5045088;28;20030;-89
2023/12/23 05:12:48;;;;;;;10.07;2.88;;;9.50;99.90;;;;;;5030785;28;20048;-91
2023/12/23 05:15:14;;;;;;;12.52;2.47;;;9.60;99.90;;;;;;5054994;28;20033;-91
2023/12/23 05:17:40;;;;;;;10.45;2.85;;;9.60;99.90;;;;;;5004640;28;20080;-90
2023/12/23 05:20:10;;;;;;;9.02;2.38;;;9.60;99.90;;;;;;5021697;28;20036;-91
2023/12/23 05:22:36;;;;;;;12.85;2.58;;;9.60;99.90;;;;;;5038129;28;20033;-90
2023/12/23 05:25:02;;;;;;;11.38;2.58;;;9.60;99.90;;;;;;5038020;28;20025;-90
2023/12/23 05:27:28;;;;;;;9.50;2.67;;;9.60;99.90;;;;;;5035837;28;20031;-90
2023/12/23 05:29:55;;;;;;;11.00;2.30;;;9.60;99.90;;;;;;5017765;28;20042;-89
2023/12/23 05:32:21;;;;;;;9.15;2.03;;;9.60;99.90;;;;;;5018446;28;20053;-90
2023/12/23 05:34:47;;;;;;;9.55;2.50;;;9.60;99.90;;;;;;5009904;28;20021;-90
2023/12/23 05:37:12;;;;;;;16.15;3.42;;;9.70;99.90;;;;;;5037858;28;20037;-89
2023/12/23 05:39:39;;;;;;;14.95;2.45;;;9.70;99.90;;;;;;5047354;28;20033;-91
2023/12/23 05:42:05;;;;;;;10.63;3.05;;;9.70;99.90;;;;;;5043337;28;20183;-91
2023/12/23 05:44:33;;;;;;;15.35;2.50;;;9.60;99.90;;;;;;4997949;28;20064;-90
2023/12/23 05:46:59;;;;;;;10.98;2.60;;;9.70;99.90;;;;;;5025377;28;20037;-90
2023/12/23 05:49:25;;;;;;;12.05;2.90;;;9.70;99.90;;;;;;5026992;28;20465;-90
2023/12/23 05:51:54;;;;;;;8.07;2.15;;;9.70;99.90;;;;;;5036557;28;20036;-89
2023/12/23 05:54:19;;;;;;;11.20;2.70;;;9.70;99.90;;;;;;5007081;28;20029;-89
2023/12/23 05:56:45;;;;;;;12.50;2.50;;;9.70;99.90;;;;;;5024351;28;20064;-89
2023/12/23 05:59:11;;;;;;;12.23;2.75;;;9.70;99.90;;;;;;5021505;28;20033;-91
2023/12/23 06:01:37;;;;;;;8.82;2.35;;;9.70;99.90;;;;;;5034859;28;20029;-92
2023/12/23 06:04:03;;;;;;;9.95;2.40;;;9.70;99.90;;;;;;5049726;28;20049;-89
2023/12/23 06:06:29;;;;;;;9.23;2.42;;;9.70;99.90;;;;;;5054835;28;20033;-90
2023/12/23 06:08:54;;;;;;;12.25;2.38;;;9.60;99.90;;;;;;5042368;28;20156;-90
2023/12/23 06:11:20;;;;;;;8.10;2.63;;;9.60;99.90;;;;;;5064445;28;20070;-90
2023/12/23 06:13:46;;;;;;;11.60;2.40;;;9.60;99.90;;;;;;5056971;28;20040;-89
2023/12/23 06:16:11;;;;;;;9.65;2.47;;;9.70;99.90;;;;;;5004555;28;20033;-89
2023/12/23 06:18:37;;;;;;;11.38;2.88;;;9.70;99.90;;;;;;5038884;28;20078;-88
2023/12/23 06:21:05;;;;;;;13.18;2.47;;;9.70;99.90;;;;;;5037534;28;20025;-90
2023/12/23 06:23:31;;;;;;;9.32;2.50;;;9.70;99.90;;;;;;5054559;28;20025;-89
2023/12/23 06:25:56;;;;;;;7.95;2.35;;;9.70;99.90;;;;;;5020909;28;20469;-90
2023/12/23 06:28:22;;;;;;;11.25;2.45;;;9.70;99.90;;;;;;5035914;28;20445;-90
2023/12/23 06:30:50;;;;;;;12.95;2.83;;;9.70;99.90;;;;;;5010770;28;20038;-90
2023/12/23 06:33:16;;;;;;;9.65;2.53;;;9.70;99.90;;;;;;5033541;28;20527;-89
2023/12/23 06:35:41;;;;;;;11.40;2.35;;;9.70;99.90;;;;;;5024493;28;20025;-90
2023/12/23 06:38:07;;;;;;;10.00;2.55;;;9.70;99.90;;;;;;5023859;28;20025;-89
2023/12/23 06:40:33;;;;;;;6.15;2.15;;;9.70;99.90;;;;;;5031353;28;20025;-90
2023/12/23 06:43:01;;;;;;;9.40;2.13;;;9.70;99.90;;;;;;5053170;28;20025;-88
2023/12/23 06:45:27;;;;;;;16.55;2.90;;;9.70;99.90;;;;;;5013779;28;20025;-90
2023/12/23 06:47:53;;;;;;;12.60;2.83;;;9.70;99.90;;;;;;5000513;28;20389;-88
2023/12/23 06:50:18;;;;;;;12.23;2.83;;;9.70;99.90;;;;;;5036927;28;20445;-90
2023/12/23 06:52:44;;;;;;;9.32;2.55;;;9.70;99.90;;;;;;5018325;28;20025;-90
2023/12/23 06:55:10;;;;;;;11.82;2.97;;;9.70;99.90;;;;;;5027153;28;20028;-90
2023/12/23 06:57:35;;;;;;;13.57;2.83;;;9.70;99.90;;;;;;5047219;28;20187;-91
2023/12/23 07:00:04;;;;;;;11.10;2.60;;;9.70;99.90;;;;;;5036718;28;20471;-91
2023/12/23 07:02:31;;;;;;;11.23;2.50;;;9.70;99.90;;;;;;5054355;28;20029;-89
2023/12/23 07:04:56;;;;;;;11.43;2.58;;;9.70;99.90;;;;;;5019731;28;20125;-90
2023/12/23 07:07:22;;;;;;;11.57;2.50;;;9.70;99.90;;;;;;5019166;28;20121;-89
2023/12/23 07:09:48;;;;;;;9.23;2.45;;;9.70;99.90;;;;;;5034809;28;20046;-89
2023/12/23 07:12:13;;;;;;;12.20;3.35;;;9.70;99.90;;;;;;5054905;28;20032;-90
2023/12/23 07:14:39;;;;;;;10.73;2.30;;;9.70;99.90;;;;;;5038425;28;20029;-92
2023/12/23 07:17:05;;;;;;;11.18;2.40;;;9.70;99.90;;;;;;5032757;28;20062;-90
2023/12/23 07:19:30;;;;;;;13.13;2.28;;;9.70;99.90;;;;;;5055295;28;20025;-90
2023/12/23 07:21:56;;;;;;;11.43;2.35;;;9.70;99.90;;;;;;5036177;28;20025;-89
2023/12/23 07:24:22;;;;;;;10.68;2.60;;;9.70;99.90;;;;;;5050021;28;20372;-91
2023/12/23 07:26:48;;;;;;;12.35;2.55;;;9.80;99.90;;;;;;5038166;28;20061;-88
2023/12/23 07:29:14;;;;;;;13.85;2.53;;;9.70;99.90;;;;;;5053741;28;20424;-94
2023/12/23 07:31:39;;;;;;;15.10;3.58;;;9.80;99.90;;;;;;5036986;28;20048;-90
2023/12/23 07:34:13;;;;;;;11.80;2.40;;;9.80;99.90;;;;;;5023079;28;20053;-96
2023/12/23 07:36:39;;;;;;;13.18;2.83;;;9.80;99.90;;;;;;5095842;23;20041;-88
2023/12/23 07:41:46;;;;;;;12.05;2.38;;;9.80;99.90;;;;;;5198256;22;20054;-95
2023/12/23 07:44:12;;;;;;;11.23;2.88;;;9.80;99.90;;;;;;5219906;22;20078;-92
2023/12/23 07:46:40;;;;;;;10.18;2.53;;;9.80;99.90;;;;;;5007297;28;20397;-95
2023/12/23 07:49:13;;;;;;;8.05;2.53;;;9.80;99.90;;;;;;5140946;22;21301;-94
2023/12/23 07:52:01;;;;;;;7.95;2.30;;;9.80;99.90;;;;;;5143854;23;20140;-89
2023/12/23 08:00:03;;;;;;;10.88;2.60;;;9.90;99.90;;;;;;5323708;22;20053;-93
2023/12/23 08:07:48;;;;;;;10.20;2.75;;;10.00;99.90;;;;;;5054976;28;20049;-92
2023/12/23 08:10:17;;;;;;;7.93;2.05;;;9.90;99.90;;;;;;5024687;28;20052;-93
2023/12/23 08:12:56;;;;;;;7.05;2.17;;;10.00;99.90;;;;;;5027585;28;20021;-93
2023/12/23 08:15:46;;;;;;;8.82;2.55;;;10.00;99.90;;;;;;5031428;28;20033;-91
2023/12/23 08:18:16;;;;;;;15.68;2.30;;;10.00;99.90;;;;;;5116365;22;20053;-94
2023/12/23 08:21:15;;;;;;;7.50;2.13;;;10.00;99.90;;;;;;5055814;28;20013;-94
2023/12/23 08:26:49;;;;;;;9.90;2.00;;;10.10;99.90;;;;;;5513787;22;20053;-93
2023/12/23 08:37:43;;;;;;;9.55;2.35;;;10.10;99.90;;;;;;4507771;22;20064;-94
2023/12/23 08:42:51;;;;;;;8.57;2.10;;;10.10;99.90;;;;;;5218286;22;20052;-93
2023/12/23 08:45:36;;;;;;;;;;;;;;;;;;;;;
2023/12/23 08:48:06;;;;;;;10.95;2.22;;;10.20;99.90;;;;;;5069584;28;20045;-95
2023/12/23 08:50:34;;;;;;;7.57;1.80;;;10.20;99.90;;;;;;5064962;28;20028;-94
2023/12/23 08:53:17;;;;;;;;;;;;;;;;;;;;;
2023/12/23 08:56:17;;;;;;;;;;;;;;;;;;;;;
2023/12/23 08:58:46;;;;;;;8.70;2.13;;;10.30;99.90;;;;;;5130529;22;20069;-94
2023/12/23 09:12:39;;;;;;;;;;;;;;;;;;;;;
2023/12/23 09:15:15;;;;;;;7.20;1.63;;;10.30;99.90;;;;;;5334728;23;20110;-93
2023/12/23 09:18:10;;;;;;;;;;;;;;;;;;;;;
2023/12/23 09:26:15;;;;;;;6.22;2.05;;;10.30;99.90;;;;;;5118537;23;20068;-94
2023/12/23 09:28:44;;;;;;;7.03;2.17;;;10.30;99.90;;;;;;5016961;28;20058;-94
2023/12/23 09:31:15;;;;;;;9.38;2.28;;;10.40;99.90;;;;;;5004932;28;20011;-93
2023/12/23 09:45:17;;;;;;;10.20;2.45;;;10.40;99.90;;;;;;5085523;23;20109;31
2023/12/23 09:47:53;;;;;;;;;;;;;;;;;;;;;
2023/12/23 09:56:20;;;;;;;6.40;1.92;;;10.40;99.90;;;;;;5429924;23;20054;-95
2023/12/23 09:58:46;;;;;;;8.88;1.73;;;10.40;99.90;;;;;;5014290;28;20041;-94
2023/12/23 10:01:12;;;;;;;9.05;2.00;;;10.40;99.90;;;;;;4996691;28;20126;-94
2023/12/23 10:17:17;;;;;;;9.48;2.30;;;10.40;99.90;;;;;;4979646;28;20063;-96
2023/12/23 10:19:47;;;;;;;7.60;1.90;;;10.40;99.90;;;;;;4982334;28;20027;-95
2023/12/23 10:22:16;;;;;;;9.93;2.00;;;10.40;99.90;;;;;;4959426;28;20467;-95
2023/12/23 10:24:46;;;;;;;12.00;2.15;;;10.40;99.90;;;;;;4953601;29;20464;-94
2023/12/23 10:27:16;;;;;;;9.15;2.10;;;10.40;99.90;;;;;;4945649;28;20026;-94
2023/12/23 10:29:55;;;;;;;8.60;1.65;;;10.50;99.90;;;;;;4961135;28;20034;-94
2023/12/23 10:32:37;;;;;;;;;;;;;;;;;;;;;
2023/12/23 10:35:17;;;;;;;;;;;;;;;;;;;;;
2023/12/23 10:37:43;;;;;;;10.65;2.67;;;10.50;99.90;;;;;;5133445;23;20069;-93
2023/12/23 10:40:39;;;;;;;8.02;2.10;;;10.50;99.90;;;;;;4949981;29;20024;-91
2023/12/23 10:43:08;;;;;;;6.10;1.95;;;10.50;99.90;;;;;;4945402;29;20066;-92
2023/12/23 10:45:38;;;;;;;7.88;1.90;;;10.50;99.90;;;;;;5060735;23;20059;-92
2023/12/23 10:48:07;;;;;;;10.27;2.45;;;10.50;99.90;;;;;;4940841;29;20034;-92
2023/12/23 10:50:36;;;;;;;7.22;2.03;;;10.50;99.90;;;;;;4940162;29;20038;-94
2023/12/23 10:53:09;;;;;;;8.48;2.13;;;10.50;99.90;;;;;;4957259;28;20027;-93
2023/12/23 10:55:38;;;;;;;10.70;2.42;;;10.50;99.90;;;;;;4940784;29;20024;-92
2023/12/23 10:58:31;;;;;;;8.30;2.40;;;10.60;99.90;;;;;;4941410;29;20028;-96
2023/12/23 11:00:57;;;;;;;9.55;1.92;;;10.50;99.90;;;;;;4926258;29;20040;-96
2023/12/23 11:04:01;;;;;;;;;;;;;;;;;;;;;
2023/12/23 11:14:47;;;;;;;9.20;2.08;;;10.60;99.90;;;;;;5151671;23;20503;-94
2023/12/23 11:20:44;;;;;;;5.95;1.70;;;10.60;99.90;;;;;;4965512;28;20054;-95
2023/12/23 11:23:42;;;;;;;6.38;1.83;;;10.70;99.90;;;;;;4940767;29;20035;-92
2023/12/23 11:26:42;;;;;;;7.22;1.77;;;10.60;99.90;;;;;;4927834;29;20043;-92
2023/12/23 11:29:11;;;;;;;8.20;1.80;;;10.70;99.90;;;;;;4968957;28;20059;-91
2023/12/23 11:31:40;;;;;;;10.23;1.90;;;10.70;99.90;;;;;;4950128;29;20027;-90
2023/12/23 11:34:33;;;;;;;9.65;2.15;;;10.70;99.90;;;;;;4952495;29;20038;-96
2023/12/23 11:36:59;;;;;;;6.50;1.60;;;10.70;99.90;;;;;;4962512;28;20130;-92
2023/12/23 11:39:25;;;;;;;7.22;1.83;;;10.70;99.90;;;;;;4958039;28;20043;-95
2023/12/23 11:41:54;;;;;;;9.30;2.03;;;10.70;99.90;;;;;;4960360;29;20032;-94
2023/12/23 11:44:20;;;;;;;8.02;2.30;;;10.70;99.90;;;;;;4969863;28;20022;-95
2023/12/23 11:46:48;;;;;;;7.30;1.67;;;10.70;99.90;;;;;;4953779;28;20027;-92
2023/12/23 11:49:40;;;;;;;;;;;;;;;;;;;;;
2023/12/23 11:52:12;;;;;;;6.97;1.73;;;10.80;99.90;;;;;;4979082;28;20046;-92
2023/12/23 11:54:48;;;;;;;4.35;1.40;;;10.80;99.90;;;;;;4944026;28;20058;-93
2023/12/23 11:57:17;;;;;;;11.25;2.10;;;10.80;99.90;;;;;;4961161;28;20031;-91
2023/12/23 11:59:42;;;;;;;6.75;1.38;;;10.80;99.90;;;;;;4952256;29;20039;-93
2023/12/23 12:02:11;;;;;;;5.43;1.48;;;10.90;99.90;;;;;;4964448;28;20035;-93
2023/12/23 12:04:37;;;;;;;7.32;1.55;;;10.90;99.90;;;;;;4958814;28;20146;-94
2023/12/23 12:07:09;;;;;;;5.70;1.38;;;10.90;99.90;;;;;;4965232;28;20039;-94
2023/12/23 12:09:37;;;;;;;7.65;1.30;;;10.90;99.90;;;;;;4970775;28;20043;-94
2023/12/23 12:12:10;;;;;;;7.47;1.85;;;10.90;99.90;;;;;;4974539;28;20061;-94
2023/12/23 12:14:36;;;;;;;7.57;1.73;;;10.90;99.90;;;;;;4965769;28;20062;-91
2023/12/23 12:17:36;;;;;;;7.60;1.67;;;10.90;99.90;;;;;;4965288;28;20395;-93
2023/12/23 12:20:04;;;;;;;6.28;1.52;;;10.90;99.90;;;;;;4963672;28;20042;-92
2023/12/23 12:22:50;;;;;;;7.95;1.83;;;11.00;99.90;;;;;;4950820;28;20030;-92
2023/12/23 12:25:23;;;;;;;7.60;1.40;;;11.00;99.90;;;;;;4948423;28;20043;-93
2023/12/23 12:27:49;;;;;;;9.50;1.65;;;11.00;99.90;;;;;;4949969;28;20034;-90
2023/12/23 12:30:18;;;;;;;6.85;1.50;;;10.90;99.90;;;;;;4947071;28;20038;-93
2023/12/23 12:32:49;;;;;;;7.32;1.58;;;11.00;99.90;;;;;;4954366;28;20034;-95
2023/12/23 12:35:18;;;;;;;5.90;1.10;;;11.00;99.90;;;;;;4947196;28;20042;-93
2023/12/23 12:37:44;;;;;;;4.28;1.00;;;11.00;99.90;;;;;;4942807;28;20035;-92
2023/12/23 12:41:10;;;;;;;4.88;1.05;;;11.00;99.90;;;;;;4954143;28;20027;-95
2023/12/23 12:47:09;;;;;;;5.53;1.35;;;11.10;99.90;;;;;;4980793;28;20035;-95
2023/12/23 12:49:42;;;;;;;;;;;11.10;99.90;;;;;;4943556;28;20038;-93
2023/12/23 13:21:42;;;;;;;3.92;1.35;;;10.90;99.90;;;;;;5040842;23;20209;-95
2023/12/23 13:24:17;;;;;;;3.60;1.05;;;11.00;99.90;;;;;;4976718;28;20049;-96
2023/12/23 13:26:43;;;;;;;5.50;1.45;;;10.90;99.90;;;;;;4948698;28;20041;-93
2023/12/23 13:31:52;;;;;;;5.78;1.30;;;10.90;99.90;;;;;;5073463;23;20084;-93
2023/12/23 13:34:25;;;;;;;5.50;1.30;;;10.90;99.90;;;;;;5084613;23;20054;-95
2023/12/23 13:39:23;;;;;;;5.28;1.33;;;10.90;99.90;;;;;;5108740;23;20041;-90
2023/12/23 13:42:01;;;;;;;;;;;;;;;;;;;;;
2023/12/23 13:47:49;;;;;;;8.40;1.50;;;11.00;99.90;;;;;;5169716;23;20065;31
2023/12/23 13:50:28;;;;;;;6.00;1.20;;;11.00;99.90;;;;;;4931232;29;20092;-93
2023/12/23 13:52:56;;;;;;;6.72;1.40;;;11.00;99.90;;;;;;4922105;29;20037;-93
2023/12/23 13:55:25;;;;;;;5.78;1.80;;;11.00;99.90;;;;;;4927729;29;20033;-96
2023/12/23 13:57:53;;;;;;;5.63;1.40;;;11.00;99.90;;;;;;4921143;29;20118;-94
2023/12/23 14:00:32;;;;;;;7.43;1.50;;;11.00;99.90;;;;;;4919592;29;20323;-93
2023/12/23 14:03:01;;;;;;;8.07;1.80;;;11.00;99.90;;;;;;4922162;29;20064;-92
2023/12/23 14:05:31;;;;;;;5.07;1.35;;;11.00;99.90;;;;;;4919550;29;20039;-93
2023/12/23 14:08:09;;;;;;;5.32;1.63;;;11.00;99.90;;;;;;4922997;29;20047;-93
2023/12/23 14:10:35;;;;;;;6.15;1.40;;;10.90;99.90;;;;;;4928045;29;20350;-91
2023/12/23 14:13:17;;;;;;;5.88;1.08;;;10.90;99.90;;;;;;4919530;29;20087;-94
2023/12/23 14:21:03;;;;;;;5.38;1.33;;;11.00;99.90;;;;;;4972535;28;20479;-92
2023/12/23 14:23:41;;;;;;;4.05;1.23;;;11.00;99.90;;;;;;4928993;29;20031;-92
2023/12/23 14:26:12;;;;;;;7.63;1.40;;;11.00;99.90;;;;;;4940746;28;20082;-93
2023/12/23 14:29:24;;;;;;;7.03;1.90;;;10.90;99.90;;;;;;4934904;29;20054;-93
2023/12/23 14:32:01;;;;;;;7.30;1.50;;;11.00;99.90;;;;;;4952756;28;20098;-90
2023/12/23 14:37:11;;;;;;;4.57;1.40;;;10.90;99.90;;;;;;4965474;28;20069;-92
2023/12/23 14:43:26;;;;;;;3.38;1.33;;;10.90;99.90;;;;;;4965732;28;20039;-89
2023/12/23 14:46:36;;;;;;;7.22;1.55;;;10.90;99.90;;;;;;4966873;28;20112;-93
2023/12/23 14:49:08;;;;;;;6.28;1.45;;;10.90;99.90;;;;;;4933187;28;20036;-90
2023/12/23 14:51:41;;;;;;;4.60;1.55;;;10.90;99.90;;;;;;4960433;29;20067;-92
2023/12/23 14:54:07;;;;;;;7.50;1.58;;;10.90;99.90;;;;;;4969926;28;20035;-94
2023/12/23 14:59:19;;;;;;;5.63;1.60;;;10.90;99.90;;;;;;5431880;23;20043;-93
2023/12/23 15:04:23;;;;;;;5.22;1.25;;;10.90;99.90;;;;;;5200241;23;20054;-94
2023/12/23 15:09:32;;;;;;;6.65;1.58;;;10.90;99.90;;;;;;5079464;23;20047;-95
2023/12/23 15:15:12;;;;;;;5.65;1.65;;;11.00;99.90;;;;;;5435729;23;20169;-94
2023/12/23 15:21:19;;;;;;;;;;;;;;;;;;;;;
2023/12/23 15:24:24;;;;;;;6.22;1.60;;;10.90;99.90;;;;;;5306338;23;20041;-87
2023/12/23 15:35:53;;;;;;;5.60;1.67;;;10.90;99.90;;;;;;4987425;23;20041;-93
2023/12/23 15:38:19;;;;;;;6.90;2.05;;;10.90;99.90;;;;;;4853230;29;20029;-95
2023/12/23 15:40:48;;;;;;;4.10;1.40;;;10.90;99.90;;;;;;4895145;29;20081;-93
2023/12/23 15:43:16;;;;;;;6.90;1.70;;;10.80;99.90;;;;;;4880729;29;20036;-95
2023/12/23 15:45:42;;;;;;;4.45;1.27;;;10.80;99.90;;;;;;4877339;29;20486;-93
2023/12/23 15:48:10;;;;;;;7.22;1.50;;;10.90;99.90;;;;;;4876119;29;20046;-94
2023/12/23 15:50:39;;;;;;;5.18;1.58;;;10.90;99.90;;;;;;4886863;29;20033;-95
2023/12/23 15:53:04;;;;;;;3.83;1.30;;;10.90;99.90;;;;;;4876825;29;20033;-94
2023/12/23 15:55:30;;;;;;;4.15;1.27;;;10.90;99.90;;;;;;4888610;29;20032;-95
2023/12/23 15:57:56;;;;;;;6.65;1.50;;;10.90;99.90;;;;;;4889012;29;20068;-94
2023/12/23 16:00:22;;;;;;;6.65;2.22;;;10.90;99.90;;;;;;4887655;29;20024;-92
2023/12/23 16:02:53;;;;;;;6.18;1.60;;;10.90;99.90;;;;;;4887306;29;20073;-90